sensor_id;sensor_type;location;lat;lon;timestamp;temperature;humidity
22917;DHT22;11624;53.250;7.456;2023-02-15T00:00:18;7.46;57.56
22917;DHT22;11624;53.250;7.456;2023-02-15T00:02:46;7.44;57.52
22917;DHT22;11624;53.250;7.456;2023-02-15T00:05:15;7.40;57.58
22917;DHT22;11624;53.250;7.456;2023-02-15T00:07:43;7.39;57.61
22917;DHT22;11624;53.250;7.456;2023-02-15T00:10:12;7.38;57.52
22917;DHT22;11624;53.250;7.456;2023-02-15T00:12:40;7.40;57.38
22917;DHT22;11624;53.250;7.456;2023-02-15T00:15:11;7.37;57.26
22917;DHT22;11624;53.250;7.456;2023-02-15T00:17:39;7.33;57.32
22917;DHT22;11624;53.250;7.456;2023-02-15T00:20:08;7.29;57.34
22917;DHT22;11624;53.250;7.456;2023-02-15T00:22:37;7.26;57.38
22917;DHT22;11624;53.250;7.456;2023-02-15T00:25:06;7.23;57.35
22917;DHT22;11624;53.250;7.456;2023-02-15T00:27:34;7.19;57.38
22917;DHT22;11624;53.250;7.456;2023-02-15T00:30:03;7.14;57.47
22917;DHT22;11624;53.250;7.456;2023-02-15T00:32:34;7.12;57.55
22917;DHT22;11624;53.250;7.456;2023-02-15T00:35:02;7.10;57.70
22917;DHT22;11624;53.250;7.456;2023-02-15T00:37:31;7.11;57.73
22917;DHT22;11624;53.250;7.456;2023-02-15T00:40:02;7.10;57.64
22917;DHT22;11624;53.250;7.456;2023-02-15T00:42:31;7.05;57.62
22917;DHT22;11624;53.250;7.456;2023-02-15T00:45:00;7.04;57.58
22917;DHT22;11624;53.250;7.456;2023-02-15T00:47:28;7.00;57.67
22917;DHT22;11624;53.250;7.456;2023-02-15T00:49:57;6.99;57.67
22917;DHT22;11624;53.250;7.456;2023-02-15T00:52:26;6.96;57.67
22917;DHT22;11624;53.250;7.456;2023-02-15T00:54:55;6.93;57.77
22917;DHT22;11624;53.250;7.456;2023-02-15T00:57:23;6.93;57.73
22917;DHT22;11624;53.250;7.456;2023-02-15T00:59:51;6.93;57.61
22917;DHT22;11624;53.250;7.456;2023-02-15T01:02:20;6.89;57.58
22917;DHT22;11624;53.250;7.456;2023-02-15T01:04:48;6.87;57.53
22917;DHT22;11624;53.250;7.456;2023-02-15T01:07:18;6.85;57.46
22917;DHT22;11624;53.250;7.456;2023-02-15T01:09:46;6.83;57.44
22917;DHT22;11624;53.250;7.456;2023-02-15T01:12:14;6.81;57.38
22917;DHT22;11624;53.250;7.456;2023-02-15T01:14:43;6.79;57.32
22917;DHT22;11624;53.250;7.456;2023-02-15T01:17:11;6.75;57.29
22917;DHT22;11624;53.250;7.456;2023-02-15T01:19:39;6.71;57.29
22917;DHT22;11624;53.250;7.456;2023-02-15T01:22:08;6.68;57.40
22917;DHT22;11624;53.250;7.456;2023-02-15T01:24:37;6.65;57.40
22917;DHT22;11624;53.250;7.456;2023-02-15T01:27:06;6.63;57.58
22917;DHT22;11624;53.250;7.456;2023-02-15T01:29:34;6.63;57.58
22917;DHT22;11624;53.250;7.456;2023-02-15T01:32:03;6.60;57.57
22917;DHT22;11624;53.250;7.456;2023-02-15T01:34:31;6.58;57.72
22917;DHT22;11624;53.250;7.456;2023-02-15T01:37:00;6.57;57.70
22917;DHT22;11624;53.250;7.456;2023-02-15T01:39:28;6.57;57.65
22917;DHT22;11624;53.250;7.456;2023-02-15T01:41:58;6.52;57.78
22917;DHT22;11624;53.250;7.456;2023-02-15T01:44:48;6.49;57.58
22917;DHT22;11624;53.250;7.456;2023-02-15T01:47:22;6.49;57.72
22917;DHT22;11624;53.250;7.456;2023-02-15T01:49:59;6.49;57.55
22917;DHT22;11624;53.250;7.456;2023-02-15T01:52:29;6.43;57.96
22917;DHT22;11624;53.250;7.456;2023-02-15T01:54:57;6.39;58.13
22917;DHT22;11624;53.250;7.456;2023-02-15T01:57:28;6.39;58.08
22917;DHT22;11624;53.250;7.456;2023-02-15T01:59:59;6.41;57.98
22917;DHT22;11624;53.250;7.456;2023-02-15T02:02:38;6.37;57.96
22917;DHT22;11624;53.250;7.456;2023-02-15T02:05:07;6.35;58.12
22917;DHT22;11624;53.250;7.456;2023-02-15T02:07:38;6.34;58.06
22917;DHT22;11624;53.250;7.456;2023-02-15T02:10:11;6.27;58.08
22917;DHT22;11624;53.250;7.456;2023-02-15T02:12:43;6.24;58.21
22917;DHT22;11624;53.250;7.456;2023-02-15T02:15:13;6.23;58.30
22917;DHT22;11624;53.250;7.456;2023-02-15T02:17:52;6.20;58.17
22917;DHT22;11624;53.250;7.456;2023-02-15T02:20:37;6.12;58.30
22917;DHT22;11624;53.250;7.456;2023-02-15T02:23:27;6.06;58.70
22917;DHT22;11624;53.250;7.456;2023-02-15T02:29:23;6.01;58.54
22917;DHT22;11624;53.250;7.456;2023-02-15T02:32:18;6.01;58.51
22917;DHT22;11624;53.250;7.456;2023-02-15T02:34:56;5.94;58.81
22917;DHT22;11624;53.250;7.456;2023-02-15T02:37:34;5.93;58.94
22917;DHT22;11624;53.250;7.456;2023-02-15T02:40:11;5.93;58.86
22917;DHT22;11624;53.250;7.456;2023-02-15T02:42:43;5.91;59.04
22917;DHT22;11624;53.250;7.456;2023-02-15T02:45:15;5.89;59.01
22917;DHT22;11624;53.250;7.456;2023-02-15T02:47:48;5.86;59.06
22917;DHT22;11624;53.250;7.456;2023-02-15T02:50:23;5.82;59.07
22917;DHT22;11624;53.250;7.456;2023-02-15T02:52:53;5.82;59.19
22917;DHT22;11624;53.250;7.456;2023-02-15T02:55:27;5.56;60.01
22917;DHT22;11624;53.250;7.456;2023-02-15T02:58:03;5.45;60.30
22917;DHT22;11624;53.250;7.456;2023-02-15T03:00:37;5.42;60.39
22917;DHT22;11624;53.250;7.456;2023-02-15T03:03:11;5.43;60.34
22917;DHT22;11624;53.250;7.456;2023-02-15T03:05:45;5.43;60.28
22917;DHT22;11624;53.250;7.456;2023-02-15T03:08:16;5.41;60.27
22917;DHT22;11624;53.250;7.456;2023-02-15T03:10:53;5.38;60.26
22917;DHT22;11624;53.250;7.456;2023-02-15T03:13:23;5.36;60.31
22917;DHT22;11624;53.250;7.456;2023-02-15T03:15:53;5.36;60.28
22917;DHT22;11624;53.250;7.456;2023-02-15T03:18:43;5.31;60.23
22917;DHT22;11624;53.250;7.456;2023-02-15T03:21:25;5.31;60.33
22917;DHT22;11624;53.250;7.456;2023-02-15T03:23:59;5.30;60.44
22917;DHT22;11624;53.250;7.456;2023-02-15T03:26:29;5.25;60.57
22917;DHT22;11624;53.250;7.456;2023-02-15T03:29:00;5.23;60.71
22917;DHT22;11624;53.250;7.456;2023-02-15T03:31:33;5.19;60.95
22917;DHT22;11624;53.250;7.456;2023-02-15T03:34:06;5.18;60.99
22917;DHT22;11624;53.250;7.456;2023-02-15T03:36:41;5.22;60.76
22917;DHT22;11624;53.250;7.456;2023-02-15T03:39:18;5.20;60.76
22917;DHT22;11624;53.250;7.456;2023-02-15T03:41:54;5.22;60.71
22917;DHT22;11624;53.250;7.456;2023-02-15T03:44:27;5.21;60.60
22917;DHT22;11624;53.250;7.456;2023-02-15T03:47:02;5.21;60.48
22917;DHT22;11624;53.250;7.456;2023-02-15T03:49:38;5.20;60.40
22917;DHT22;11624;53.250;7.456;2023-02-15T03:52:11;5.19;60.38
22917;DHT22;11624;53.250;7.456;2023-02-15T03:54:39;5.15;60.54
22917;DHT22;11624;53.250;7.456;2023-02-15T03:57:15;5.12;60.57
22917;DHT22;11624;53.250;7.456;2023-02-15T04:00:04;5.10;60.52
22917;DHT22;11624;53.250;7.456;2023-02-15T04:03:11;5.23;59.67
22917;DHT22;11624;53.250;7.456;2023-02-15T04:05:41;5.38;59.38
22917;DHT22;11624;53.250;7.456;2023-02-15T04:08:12;5.40;59.18
22917;DHT22;11624;53.250;7.456;2023-02-15T04:10:40;5.37;59.13
22917;DHT22;11624;53.250;7.456;2023-02-15T04:13:21;5.38;59.10
22917;DHT22;11624;53.250;7.456;2023-02-15T04:15:49;5.37;59.13
22917;DHT22;11624;53.250;7.456;2023-02-15T04:18:37;5.34;59.14
22917;DHT22;11624;53.250;7.456;2023-02-15T04:21:25;5.32;59.19
22917;DHT22;11624;53.250;7.456;2023-02-15T04:24:13;5.31;59.15
22917;DHT22;11624;53.250;7.456;2023-02-15T04:26:59;5.31;59.16
22917;DHT22;11624;53.250;7.456;2023-02-15T04:29:28;5.27;59.20
22917;DHT22;11624;53.250;7.456;2023-02-15T04:31:57;5.26;59.26
22917;DHT22;11624;53.250;7.456;2023-02-15T04:34:26;5.25;59.25
22917;DHT22;11624;53.250;7.456;2023-02-15T04:36:54;5.25;59.27
22917;DHT22;11624;53.250;7.456;2023-02-15T04:39:24;5.26;59.23
22917;DHT22;11624;53.250;7.456;2023-02-15T04:41:52;5.25;59.20
22917;DHT22;11624;53.250;7.456;2023-02-15T04:44:21;5.24;59.18
22917;DHT22;11624;53.250;7.456;2023-02-15T04:46:49;5.22;59.18
22917;DHT22;11624;53.250;7.456;2023-02-15T04:49:17;5.21;59.23
22917;DHT22;11624;53.250;7.456;2023-02-15T04:51:46;5.22;59.19
22917;DHT22;11624;53.250;7.456;2023-02-15T04:54:14;5.20;59.17
22917;DHT22;11624;53.250;7.456;2023-02-15T04:56:43;5.21;59.16
22917;DHT22;11624;53.250;7.456;2023-02-15T04:59:12;5.22;59.17
22917;DHT22;11624;53.250;7.456;2023-02-15T05:01:41;5.19;59.31
22917;DHT22;11624;53.250;7.456;2023-02-15T05:04:09;5.17;59.35
22917;DHT22;11624;53.250;7.456;2023-02-15T05:06:38;5.17;59.30
22917;DHT22;11624;53.250;7.456;2023-02-15T05:09:06;5.17;59.22
22917;DHT22;11624;53.250;7.456;2023-02-15T05:11:34;5.16;59.22
22917;DHT22;11624;53.250;7.456;2023-02-15T05:14:04;5.12;59.28
22917;DHT22;11624;53.250;7.456;2023-02-15T05:16:33;5.11;59.29
22917;DHT22;11624;53.250;7.456;2023-02-15T05:19:01;5.11;59.25
22917;DHT22;11624;53.250;7.456;2023-02-15T05:21:30;5.10;59.23
22917;DHT22;11624;53.250;7.456;2023-02-15T05:23:59;5.10;59.24
22917;DHT22;11624;53.250;7.456;2023-02-15T05:26:27;5.07;59.33
22917;DHT22;11624;53.250;7.456;2023-02-15T05:29:14;5.04;59.37
22917;DHT22;11624;53.250;7.456;2023-02-15T05:31:43;5.04;59.43
22917;DHT22;11624;53.250;7.456;2023-02-15T05:34:14;5.05;59.45
22917;DHT22;11624;53.250;7.456;2023-02-15T05:36:42;5.06;59.41
22917;DHT22;11624;53.250;7.456;2023-02-15T05:39:10;5.06;59.41
22917;DHT22;11624;53.250;7.456;2023-02-15T05:41:39;5.06;59.41
22917;DHT22;11624;53.250;7.456;2023-02-15T05:44:07;5.06;59.39
22917;DHT22;11624;53.250;7.456;2023-02-15T05:46:37;5.05;59.40
22917;DHT22;11624;53.250;7.456;2023-02-15T05:49:05;5.03;59.46
22917;DHT22;11624;53.250;7.456;2023-02-15T05:51:33;5.03;59.56
22917;DHT22;11624;53.250;7.456;2023-02-15T05:54:01;5.04;59.64
22917;DHT22;11624;53.250;7.456;2023-02-15T05:56:30;5.05;59.69
22917;DHT22;11624;53.250;7.456;2023-02-15T05:58:58;5.06;59.73
22917;DHT22;11624;53.250;7.456;2023-02-15T06:01:26;5.08;59.77
22917;DHT22;11624;53.250;7.456;2023-02-15T06:03:56;5.10;59.75
22917;DHT22;11624;53.250;7.456;2023-02-15T06:06:24;5.11;59.77
22917;DHT22;11624;53.250;7.456;2023-02-15T06:08:52;5.15;59.77
22917;DHT22;11624;53.250;7.456;2023-02-15T06:11:21;5.12;59.82
22917;DHT22;11624;53.250;7.456;2023-02-15T06:13:49;5.11;59.91
22917;DHT22;11624;53.250;7.456;2023-02-15T06:16:17;5.12;59.89
22917;DHT22;11624;53.250;7.456;2023-02-15T06:18:46;5.12;59.79
22917;DHT22;11624;53.250;7.456;2023-02-15T06:21:16;5.11;59.80
22917;DHT22;11624;53.250;7.456;2023-02-15T06:23:44;5.07;59.93
22917;DHT22;11624;53.250;7.456;2023-02-15T06:26:12;5.09;59.90
22917;DHT22;11624;53.250;7.456;2023-02-15T06:28:40;5.10;59.80
22917;DHT22;11624;53.250;7.456;2023-02-15T06:31:09;5.10;59.78
22917;DHT22;11624;53.250;7.456;2023-02-15T06:33:37;5.09;59.70
22917;DHT22;11624;53.250;7.456;2023-02-15T06:36:06;5.07;59.69
22917;DHT22;11624;53.250;7.456;2023-02-15T06:38:36;5.05;59.76
22917;DHT22;11624;53.250;7.456;2023-02-15T06:41:04;5.06;59.78
22917;DHT22;11624;53.250;7.456;2023-02-15T06:43:32;5.07;59.77
22917;DHT22;11624;53.250;7.456;2023-02-15T06:46:01;5.08;59.79
22917;DHT22;11624;53.250;7.456;2023-02-15T06:48:29;5.09;59.80
22917;DHT22;11624;53.250;7.456;2023-02-15T06:50:58;5.12;59.80
22917;DHT22;11624;53.250;7.456;2023-02-15T06:53:26;5.15;59.80
22917;DHT22;11624;53.250;7.456;2023-02-15T06:56:01;5.15;59.57
22917;DHT22;11624;53.250;7.456;2023-02-15T06:58:33;5.16;59.86
22917;DHT22;11624;53.250;7.456;2023-02-15T07:01:01;5.20;59.88
22917;DHT22;11624;53.250;7.456;2023-02-15T07:03:30;5.23;59.90
22917;DHT22;11624;53.250;7.456;2023-02-15T07:06:00;5.27;59.95
22917;DHT22;11624;53.250;7.456;2023-02-15T07:08:29;5.33;59.99
22917;DHT22;11624;53.250;7.456;2023-02-15T07:10:57;5.35;60.06
22917;DHT22;11624;53.250;7.456;2023-02-15T07:13:47;5.40;60.14
22917;DHT22;11624;53.250;7.456;2023-02-15T07:16:15;5.48;60.31
22917;DHT22;11624;53.250;7.456;2023-02-15T07:18:43;5.54;60.44
22917;DHT22;11624;53.250;7.456;2023-02-15T07:21:12;5.63;60.47
22917;DHT22;11624;53.250;7.456;2023-02-15T07:23:40;5.72;60.49
22917;DHT22;11624;53.250;7.456;2023-02-15T07:26:08;5.79;60.45
22917;DHT22;11624;53.250;7.456;2023-02-15T07:28:37;5.86;60.51
22917;DHT22;11624;53.250;7.456;2023-02-15T07:31:06;5.95;60.51
22917;DHT22;11624;53.250;7.456;2023-02-15T07:33:35;6.04;60.71
22917;DHT22;11624;53.250;7.456;2023-02-15T07:36:04;6.14;61.09
22917;DHT22;11624;53.250;7.456;2023-02-15T07:38:34;6.25;61.91
22917;DHT22;11624;53.250;7.456;2023-02-15T07:41:05;6.44;62.18
22917;DHT22;11624;53.250;7.456;2023-02-15T07:43:35;6.59;62.68
22917;DHT22;11624;53.250;7.456;2023-02-15T07:46:05;6.80;62.41
22917;DHT22;11624;53.250;7.456;2023-02-15T07:48:36;6.93;62.72
22917;DHT22;11624;53.250;7.456;2023-02-15T07:51:07;7.07;63.11
22917;DHT22;11624;53.250;7.456;2023-02-15T07:53:36;7.26;62.82
22917;DHT22;11624;53.250;7.456;2023-02-15T07:56:07;7.39;62.71
22917;DHT22;11624;53.250;7.456;2023-02-15T07:58:35;7.62;63.01
22917;DHT22;11624;53.250;7.456;2023-02-15T08:01:21;8.05;62.91
22917;DHT22;11624;53.250;7.456;2023-02-15T08:03:51;8.45;62.83
22917;DHT22;11624;53.250;7.456;2023-02-15T08:06:21;8.77;62.09
22917;DHT22;11624;53.250;7.456;2023-02-15T08:08:49;8.93;61.88
22917;DHT22;11624;53.250;7.456;2023-02-15T08:11:20;8.95;62.13
22917;DHT22;11624;53.250;7.456;2023-02-15T08:13:57;9.01;62.25
22917;DHT22;11624;53.250;7.456;2023-02-15T08:16:29;9.07;62.22
22917;DHT22;11624;53.250;7.456;2023-02-15T08:19:02;9.15;62.13
22917;DHT22;11624;53.250;7.456;2023-02-15T08:21:31;9.26;62.10
22917;DHT22;11624;53.250;7.456;2023-02-15T08:24:00;9.36;61.97
22917;DHT22;11624;53.250;7.456;2023-02-15T08:26:29;9.30;62.50
22917;DHT22;11624;53.250;7.456;2023-02-15T08:28:59;9.33;63.24
22917;DHT22;11624;53.250;7.456;2023-02-15T08:31:28;9.50;64.15
22917;DHT22;11624;53.250;7.456;2023-02-15T08:33:57;9.63;64.27
22917;DHT22;11624;53.250;7.456;2023-02-15T08:36:28;9.91;64.36
22917;DHT22;11624;53.250;7.456;2023-02-15T08:38:59;10.01;63.40
22917;DHT22;11624;53.250;7.456;2023-02-15T08:41:30;10.25;63.02
22917;DHT22;11624;53.250;7.456;2023-02-15T08:44:00;10.56;62.50
22917;DHT22;11624;53.250;7.456;2023-02-15T08:46:31;10.70;60.63
22917;DHT22;11624;53.250;7.456;2023-02-15T08:49:00;10.83;60.17
22917;DHT22;11624;53.250;7.456;2023-02-15T08:51:31;10.89;59.35
22917;DHT22;11624;53.250;7.456;2023-02-15T08:54:02;11.23;60.24
22917;DHT22;11624;53.250;7.456;2023-02-15T08:56:33;11.36;58.94
22917;DHT22;11624;53.250;7.456;2023-02-15T08:59:02;11.66;59.07
22917;DHT22;11624;53.250;7.456;2023-02-15T09:01:32;11.89;57.38
22917;DHT22;11624;53.250;7.456;2023-02-15T09:04:03;12.26;58.02
22917;DHT22;11624;53.250;7.456;2023-02-15T09:06:33;12.62;56.68
22917;DHT22;11624;53.250;7.456;2023-02-15T09:09:02;12.65;54.92
22917;DHT22;11624;53.250;7.456;2023-02-15T09:11:33;12.96;55.03
22917;DHT22;11624;53.250;7.456;2023-02-15T09:14:03;13.16;54.30
22917;DHT22;11624;53.250;7.456;2023-02-15T09:16:34;13.40;53.95
22917;DHT22;11624;53.250;7.456;2023-02-15T09:19:03;13.62;52.34
22917;DHT22;11624;53.250;7.456;2023-02-15T09:21:35;13.91;52.07
22917;DHT22;11624;53.250;7.456;2023-02-15T09:24:05;14.11;51.33
22917;DHT22;11624;53.250;7.456;2023-02-15T09:26:37;14.35;49.89
22917;DHT22;11624;53.250;7.456;2023-02-15T09:29:06;14.43;49.37
22917;DHT22;11624;53.250;7.456;2023-02-15T09:31:38;14.62;49.37
22917;DHT22;11624;53.250;7.456;2023-02-15T09:34:08;14.77;48.66
22917;DHT22;11624;53.250;7.456;2023-02-15T09:36:39;14.86;48.00
22917;DHT22;11624;53.250;7.456;2023-02-15T09:39:10;15.04;48.35
22917;DHT22;11624;53.250;7.456;2023-02-15T09:42:12;15.43;47.95
22917;DHT22;11624;53.250;7.456;2023-02-15T09:44:58;15.65;45.63
22917;DHT22;11624;53.250;7.456;2023-02-15T09:47:44;15.88;46.19
22917;DHT22;11624;53.250;7.456;2023-02-15T09:50:21;16.18;45.72
22917;DHT22;11624;53.250;7.456;2023-02-15T09:53:07;16.25;45.03
22917;DHT22;11624;53.250;7.456;2023-02-15T09:55:48;16.36;44.65
22917;DHT22;11624;53.250;7.456;2023-02-15T09:58:27;16.46;44.03
22917;DHT22;11624;53.250;7.456;2023-02-15T10:01:03;16.29;43.42
22917;DHT22;11624;53.250;7.456;2023-02-15T10:03:41;16.13;43.62
22917;DHT22;11624;53.250;7.456;2023-02-15T10:06:29;16.01;44.48
22917;DHT22;11624;53.250;7.456;2023-02-15T10:09:14;16.03;44.62
22917;DHT22;11624;53.250;7.456;2023-02-15T10:11:54;16.24;44.27
22917;DHT22;11624;53.250;7.456;2023-02-15T10:14:38;16.17;44.14
22917;DHT22;11624;53.250;7.456;2023-02-15T10:17:20;16.13;44.44
22917;DHT22;11624;53.250;7.456;2023-02-15T10:19:59;16.27;44.90
22917;DHT22;11624;53.250;7.456;2023-02-15T10:22:41;16.71;44.37
22917;DHT22;11624;53.250;7.456;2023-02-15T10:25:28;17.05;43.25
22917;DHT22;11624;53.250;7.456;2023-02-15T10:28:03;17.15;42.36
22917;DHT22;11624;53.250;7.456;2023-02-15T10:30:38;17.25;42.26
22917;DHT22;11624;53.250;7.456;2023-02-15T10:33:20;17.09;41.23
22917;DHT22;11624;53.250;7.456;2023-02-15T10:36:01;16.86;42.07
22917;DHT22;11624;53.250;7.456;2023-02-15T10:38:36;17.19;41.77
22917;DHT22;11624;53.250;7.456;2023-02-15T10:41:24;17.33;40.26
22917;DHT22;11624;53.250;7.456;2023-02-15T10:44:17;17.49;40.69
22917;DHT22;11624;53.250;7.456;2023-02-15T10:47:19;18.06;40.71
22917;DHT22;11624;53.250;7.456;2023-02-15T10:50:10;18.18;39.98
22917;DHT22;11624;53.250;7.456;2023-02-15T10:52:50;18.37;39.50
22917;DHT22;11624;53.250;7.456;2023-02-15T10:55:30;18.91;38.98
22917;DHT22;11624;53.250;7.456;2023-02-15T10:58:09;19.18;37.69
22917;DHT22;11624;53.250;7.456;2023-02-15T11:00:46;19.32;37.77
22917;DHT22;11624;53.250;7.456;2023-02-15T11:03:31;19.31;36.12
22917;DHT22;11624;53.250;7.456;2023-02-15T11:06:04;19.28;36.76
22917;DHT22;11624;53.250;7.456;2023-02-15T11:08:35;19.27;37.10
22917;DHT22;11624;53.250;7.456;2023-02-15T11:11:07;19.23;36.83
22917;DHT22;11624;53.250;7.456;2023-02-15T11:13:40;19.62;36.59
22917;DHT22;11624;53.250;7.456;2023-02-15T11:16:13;19.73;34.75
22917;DHT22;11624;53.250;7.456;2023-02-15T11:18:48;19.26;35.87
22917;DHT22;11624;53.250;7.456;2023-02-15T11:21:22;19.30;36.57
22917;DHT22;11624;53.250;7.456;2023-02-15T11:23:51;19.39;36.14
22917;DHT22;11624;53.250;7.456;2023-02-15T11:26:26;19.11;36.47
22917;DHT22;11624;53.250;7.456;2023-02-15T11:28:59;18.85;36.85
22917;DHT22;11624;53.250;7.456;2023-02-15T11:31:36;18.96;37.58
22917;DHT22;11624;53.250;7.456;2023-02-15T11:34:15;19.25;37.66
22917;DHT22;11624;53.250;7.456;2023-02-15T11:36:47;19.45;37.31
22917;DHT22;11624;53.250;7.456;2023-02-15T11:39:18;20.03;36.83
22917;DHT22;11624;53.250;7.456;2023-02-15T11:41:49;20.62;36.05
22917;DHT22;11624;53.250;7.456;2023-02-15T11:44:24;21.15;34.14
22917;DHT22;11624;53.250;7.456;2023-02-15T11:46:54;21.11;33.79
22917;DHT22;11624;53.250;7.456;2023-02-15T11:49:29;20.85;33.37
22917;DHT22;11624;53.250;7.456;2023-02-15T11:52:00;20.57;33.60
22917;DHT22;11624;53.250;7.456;2023-02-15T11:54:30;20.58;33.47
22917;DHT22;11624;53.250;7.456;2023-02-15T11:57:03;20.56;33.85
22917;DHT22;11624;53.250;7.456;2023-02-15T11:59:36;20.93;33.76
22917;DHT22;11624;53.250;7.456;2023-02-15T12:02:15;20.88;33.05
22917;DHT22;11624;53.250;7.456;2023-02-15T12:04:49;20.86;33.55
22917;DHT22;11624;53.250;7.456;2023-02-15T12:07:22;20.66;33.93
22917;DHT22;11624;53.250;7.456;2023-02-15T12:09:57;20.73;33.95
22917;DHT22;11624;53.250;7.456;2023-02-15T12:12:29;20.84;33.70
22917;DHT22;11624;53.250;7.456;2023-02-15T12:15:00;21.08;33.32
22917;DHT22;11624;53.250;7.456;2023-02-15T12:17:31;21.05;32.93
22917;DHT22;11624;53.250;7.456;2023-02-15T12:20:01;20.90;33.70
22917;DHT22;11624;53.250;7.456;2023-02-15T12:22:31;21.22;33.51
22917;DHT22;11624;53.250;7.456;2023-02-15T12:25:01;21.40;33.02
22917;DHT22;11624;53.250;7.456;2023-02-15T12:27:31;21.63;32.34
22917;DHT22;11624;53.250;7.456;2023-02-15T12:30:05;21.47;31.27
22917;DHT22;11624;53.250;7.456;2023-02-15T12:32:46;20.90;32.44
22917;DHT22;11624;53.250;7.456;2023-02-15T12:35:21;20.60;32.64
22917;DHT22;11624;53.250;7.456;2023-02-15T12:37:56;20.21;33.83
22917;DHT22;11624;53.250;7.456;2023-02-15T12:40:26;20.10;34.25
22917;DHT22;11624;53.250;7.456;2023-02-15T12:42:57;20.10;35.31
22917;DHT22;11624;53.250;7.456;2023-02-15T12:45:29;20.41;34.57
22917;DHT22;11624;53.250;7.456;2023-02-15T12:48:14;20.75;34.46
22917;DHT22;11624;53.250;7.456;2023-02-15T12:50:44;21.49;34.29
22917;DHT22;11624;53.250;7.456;2023-02-15T12:53:15;22.10;32.76
22917;DHT22;11624;53.250;7.456;2023-02-15T12:55:53;22.18;31.51
22917;DHT22;11624;53.250;7.456;2023-02-15T12:58:23;22.19;30.62
22917;DHT22;11624;53.250;7.456;2023-02-15T13:01:11;21.83;31.39
22917;DHT22;11624;53.250;7.456;2023-02-15T13:03:55;21.93;31.09
22917;DHT22;11624;53.250;7.456;2023-02-15T13:06:24;22.02;31.03
22917;DHT22;11624;53.250;7.456;2023-02-15T13:08:54;21.74;31.17
22917;DHT22;11624;53.250;7.456;2023-02-15T13:11:26;21.38;31.36
22917;DHT22;11624;53.250;7.456;2023-02-15T13:13:59;20.79;32.70
22917;DHT22;11624;53.250;7.456;2023-02-15T13:16:33;20.73;33.28
22917;DHT22;11624;53.250;7.456;2023-02-15T13:19:04;20.99;33.22
22917;DHT22;11624;53.250;7.456;2023-02-15T13:21:37;21.16;32.71
22917;DHT22;11624;53.250;7.456;2023-02-15T13:24:13;21.15;32.93
22917;DHT22;11624;53.250;7.456;2023-02-15T13:26:44;20.91;32.95
22917;DHT22;11624;53.250;7.456;2023-02-15T13:29:18;21.05;32.84
22917;DHT22;11624;53.250;7.456;2023-02-15T13:31:49;21.11;32.43
22917;DHT22;11624;53.250;7.456;2023-02-15T13:34:23;20.55;33.38
22917;DHT22;11624;53.250;7.456;2023-02-15T13:36:57;20.63;33.69
22917;DHT22;11624;53.250;7.456;2023-02-15T13:39:31;20.73;33.24
22917;DHT22;11624;53.250;7.456;2023-02-15T13:42:09;20.64;33.23
22917;DHT22;11624;53.250;7.456;2023-02-15T13:45:02;20.42;33.73
22917;DHT22;11624;53.250;7.456;2023-02-15T13:47:44;20.59;34.07
22917;DHT22;11624;53.250;7.456;2023-02-15T13:50:39;20.59;33.55
22917;DHT22;11624;53.250;7.456;2023-02-15T13:53:30;20.56;33.37
22917;DHT22;11624;53.250;7.456;2023-02-15T13:56:06;20.39;33.47
22917;DHT22;11624;53.250;7.456;2023-02-15T13:59:01;19.98;34.15
22917;DHT22;11624;53.250;7.456;2023-02-15T14:01:39;20.02;34.26
22917;DHT22;11624;53.250;7.456;2023-02-15T14:04:32;19.69;35.04
22917;DHT22;11624;53.250;7.456;2023-02-15T14:07:29;19.50;35.37
22917;DHT22;11624;53.250;7.456;2023-02-15T14:10:12;19.16;35.97
22917;DHT22;11624;53.250;7.456;2023-02-15T14:12:57;18.73;36.74
22917;DHT22;11624;53.250;7.456;2023-02-15T14:15:35;18.73;37.16
22917;DHT22;11624;53.250;7.456;2023-02-15T14:18:19;18.58;37.69
22917;DHT22;11624;53.250;7.456;2023-02-15T14:21:00;18.74;37.37
22917;DHT22;11624;53.250;7.456;2023-02-15T14:23:39;18.64;37.95
22917;DHT22;11624;53.250;7.456;2023-02-15T14:26:14;18.64;37.64
22917;DHT22;11624;53.250;7.456;2023-02-15T14:28:48;18.54;37.81
22917;DHT22;11624;53.250;7.456;2023-02-15T14:31:23;18.76;37.93
22917;DHT22;11624;53.250;7.456;2023-02-15T14:33:55;18.97;37.40
22917;DHT22;11624;53.250;7.456;2023-02-15T14:36:27;18.92;37.01
22917;DHT22;11624;53.250;7.456;2023-02-15T14:39:06;19.05;37.11
22917;DHT22;11624;53.250;7.456;2023-02-15T14:42:09;18.85;37.13
22917;DHT22;11624;53.250;7.456;2023-02-15T14:44:42;19.00;37.53
22917;DHT22;11624;53.250;7.456;2023-02-15T14:47:14;18.83;37.20
22917;DHT22;11624;53.250;7.456;2023-02-15T14:49:45;18.64;37.73
22917;DHT22;11624;53.250;7.456;2023-02-15T14:52:14;18.43;38.21
22917;DHT22;11624;53.250;7.456;2023-02-15T14:54:57;18.42;38.46
22917;DHT22;11624;53.250;7.456;2023-02-15T14:57:32;18.37;38.75
22917;DHT22;11624;53.250;7.456;2023-02-15T15:00:33;18.37;38.94
22917;DHT22;11624;53.250;7.456;2023-02-15T15:03:12;18.20;38.87
22917;DHT22;11624;53.250;7.456;2023-02-15T15:05:49;18.07;39.28
22917;DHT22;11624;53.250;7.456;2023-02-15T15:08:38;17.73;39.67
22917;DHT22;11624;53.250;7.456;2023-02-15T15:11:40;17.74;39.73
22917;DHT22;11624;53.250;7.456;2023-02-15T15:16:54;17.66;39.93
22917;DHT22;11624;53.250;7.456;2023-02-15T15:19:58;17.40;40.20
22917;DHT22;11624;53.250;7.456;2023-02-15T15:22:27;17.44;40.49
22917;DHT22;11624;53.250;7.456;2023-02-15T15:24:59;17.48;40.27
22917;DHT22;11624;53.250;7.456;2023-02-15T15:27:42;17.33;40.46
22917;DHT22;11624;53.250;7.456;2023-02-15T15:37:00;17.07;41.39
22917;DHT22;11624;53.250;7.456;2023-02-15T15:42:49;16.89;42.03
22917;DHT22;11624;53.250;7.456;2023-02-15T15:45:35;16.80;42.29
22917;DHT22;11624;53.250;7.456;2023-02-15T15:48:26;16.65;42.58
22917;DHT22;11624;53.250;7.456;2023-02-15T15:51:02;16.57;42.84
22917;DHT22;11624;53.250;7.456;2023-02-15T15:53:41;16.60;42.75
22917;DHT22;11624;53.250;7.456;2023-02-15T15:56:13;16.57;42.80
22917;DHT22;11624;53.250;7.456;2023-02-15T15:58:50;16.50;42.73
22917;DHT22;11624;53.250;7.456;2023-02-15T16:01:26;16.40;42.97
22917;DHT22;11624;53.250;7.456;2023-02-15T16:03:55;16.40;43.02
22917;DHT22;11624;53.250;7.456;2023-02-15T16:06:28;16.32;43.16
22917;DHT22;11624;53.250;7.456;2023-02-15T16:09:12;16.27;43.17
22917;DHT22;11624;53.250;7.456;2023-02-15T16:11:41;16.21;43.48
22917;DHT22;11624;53.250;7.456;2023-02-15T16:14:17;16.14;43.58
22917;DHT22;11624;53.250;7.456;2023-02-15T16:16:51;16.08;43.82
22917;DHT22;11624;53.250;7.456;2023-02-15T16:19:23;16.07;43.73
22917;DHT22;11624;53.250;7.456;2023-02-15T16:21:54;15.95;44.22
22917;DHT22;11624;53.250;7.456;2023-02-15T16:24:37;15.85;44.48
22917;DHT22;11624;53.250;7.456;2023-02-15T16:27:36;15.78;44.30
22917;DHT22;11624;53.250;7.456;2023-02-15T16:30:20;15.69;44.51
22917;DHT22;11624;53.250;7.456;2023-02-15T16:32:48;15.56;45.22
22917;DHT22;11624;53.250;7.456;2023-02-15T16:35:19;15.56;45.19
22917;DHT22;11624;53.250;7.456;2023-02-15T16:37:47;15.54;45.22